Time;durP1;ratioP1;P1;durP2;ratioP2;P2;SDS_P1;SDS_P2;PMS_P1;PMS_P2;Temp;Humidity;BMP_temperature;BMP_pressure;BME280_temperature;BME280_humidity;BME280_pressure;Samples;Min_cycle;Max_cycle;Signal;HPM_P1;HPM_P2
2022/11/24 00:01:22;;;;;;;8.18;3.58;;;;;;;;;;4972877;28;20046;-83
2022/11/24 00:03:54;;;;;;;8.25;3.53;;;;;;;;;;4983705;28;20472;-84
2022/11/24 00:06:22;;;;;;;8.30;4.45;;;;;;;;;;5006431;28;20042;-84
2022/11/24 00:08:48;;;;;;;10.55;5.60;;;;;;;;;;4999810;28;20026;-83
2022/11/24 00:11:18;;;;;;;7.22;3.72;;;;;;;;;;5007695;28;20029;-84
2022/11/24 00:13:44;;;;;;;11.15;4.75;;;;;;;;;;4966333;28;20049;-83
2022/11/24 00:16:14;;;;;;;10.70;3.58;;;;;;;;;;4986976;28;20030;-84
2022/11/24 00:18:43;;;;;;;6.63;4.18;;;;;;;;;;5006961;28;20014;-84
2022/11/24 00:21:16;;;;;;;17.48;6.03;;;;;;;;;;5008312;28;20041;-83
2022/11/24 00:23:42;;;;;;;6.75;2.70;;;;;;;;;;5005792;28;20097;-83
2022/11/24 00:26:12;;;;;;;6.75;4.15;;;;;;;;;;4996689;28;20021;-84
2022/11/24 00:28:40;;;;;;;6.75;4.47;;;;;;;;;;5015430;28;20021;-83
2022/11/24 00:31:21;;;;;;;8.32;4.80;;;;;;;;;;5029396;28;20034;-83
2022/11/24 00:33:53;;;;;;;14.75;5.60;;;;;;;;;;5019189;28;20056;-84
2022/11/24 00:36:19;;;;;;;7.47;4.25;;;;;;;;;;4991316;28;20511;-83
2022/11/24 00:38:46;;;;;;;12.57;4.55;;;;;;;;;;5004185;28;20037;-83
2022/11/24 00:41:12;;;;;;;7.80;3.90;;;;;;;;;;4987792;28;20045;-83
2022/11/24 00:43:38;;;;;;;6.50;3.67;;;;;;;;;;5007724;28;20037;-84
2022/11/24 00:46:04;;;;;;;8.23;3.60;;;;;;;;;;5004693;28;20100;-85
2022/11/24 00:48:30;;;;;;;5.20;3.35;;;;;;;;;;5007395;28;20068;-85
2022/11/24 00:50:58;;;;;;;9.70;5.07;;;;;;;;;;4968318;28;20121;-85
2022/11/24 00:53:24;;;;;;;10.43;4.57;;;;;;;;;;4990737;28;20522;-84
2022/11/24 00:55:53;;;;;;;11.07;4.35;;;;;;;;;;4990437;28;20030;-84
2022/11/24 00:58:19;;;;;;;9.15;4.15;;;;;;;;;;5007213;28;20488;-84
2022/11/24 01:00:44;;;;;;;7.13;4.25;;;;;;;;;;5005645;28;20032;-84
2022/11/24 01:03:14;;;;;;;11.75;3.05;;;;;;;;;;4994552;28;20124;-85
2022/11/24 01:05:40;;;;;;;20.13;3.83;;;;;;;;;;5005255;28;20034;-84
2022/11/24 01:08:06;;;;;;;10.25;4.32;;;;;;;;;;4989855;28;20491;-84
2022/11/24 01:10:34;;;;;;;23.55;5.50;;;;;;;;;;4990804;28;20507;-84
2022/11/24 01:13:03;;;;;;;16.77;3.78;;;;;;;;;;4991688;28;20033;-84
2022/11/24 01:15:29;;;;;;;8.00;3.30;;;;;;;;;;4990698;28;20030;-84
2022/11/24 01:17:55;;;;;;;6.95;3.67;;;;;;;;;;4991303;28;20029;-84
2022/11/24 01:20:21;;;;;;;11.18;3.50;;;;;;;;;;5016773;23;20069;-77
2022/11/24 01:22:49;;;;;;;7.60;3.75;;;;;;;;;;5004862;28;20391;-77
2022/11/24 01:25:15;;;;;;;4.35;2.70;;;;;;;;;;5027261;28;20232;-77
2022/11/24 01:27:40;;;;;;;6.43;3.10;;;;;;;;;;5024245;28;20025;-77
2022/11/24 01:30:09;;;;;;;10.35;3.13;;;;;;;;;;4995632;28;20071;-77
2022/11/24 01:32:36;;;;;;;18.08;3.90;;;;;;;;;;4989019;28;20041;-77
2022/11/24 01:35:03;;;;;;;9.13;4.03;;;;;;;;;;5006728;28;20022;-77
2022/11/24 01:37:29;;;;;;;4.55;3.17;;;;;;;;;;5007056;28;20703;-77
2022/11/24 01:39:54;;;;;;;15.82;5.57;;;;;;;;;;5003838;28;20026;-76
2022/11/24 01:42:20;;;;;;;11.43;3.22;;;;;;;;;;4984758;28;20116;-76
2022/11/24 01:44:47;;;;;;;9.77;3.30;;;;;;;;;;5006818;28;20021;-77
2022/11/24 01:47:18;;;;;;;8.45;4.55;;;;;;;;;;5014791;28;20033;-76
2022/11/24 01:49:49;;;;;;;6.68;3.45;;;;;;;;;;5004602;28;20038;-77
2022/11/24 01:52:20;;;;;;;6.13;2.90;;;;;;;;;;4991981;28;20427;-77
2022/11/24 01:54:51;;;;;;;14.60;4.32;;;;;;;;;;4978175;28;20033;-76
2022/11/24 01:57:28;;;;;;;16.25;5.45;;;;;;;;;;5010248;28;20030;-76
2022/11/24 01:59:56;;;;;;;4.93;2.45;;;;;;;;;;5008695;28;20041;-77
2022/11/24 02:02:24;;;;;;;7.38;3.95;;;;;;;;;;4995742;28;20029;-76
2022/11/24 02:04:50;;;;;;;6.28;3.35;;;;;;;;;;4984838;28;20049;-76
2022/11/24 02:07:16;;;;;;;6.28;4.22;;;;;;;;;;5006726;28;20038;-76
2022/11/24 02:09:50;;;;;;;8.45;4.05;;;;;;;;;;4990740;28;20040;-76
2022/11/24 02:12:18;;;;;;;15.10;4.15;;;;;;;;;;5019023;28;20029;-76
2022/11/24 02:14:46;;;;;;;10.32;2.88;;;;;;;;;;5012938;28;20034;-76
2022/11/24 02:17:15;;;;;;;10.05;3.28;;;;;;;;;;5019611;28;20380;-76
2022/11/24 02:19:56;;;;;;;6.75;3.33;;;;;;;;;;5003322;28;20044;-76
2022/11/24 02:22:25;;;;;;;10.30;3.88;;;;;;;;;;4995397;28;20033;-76
2022/11/24 02:24:55;;;;;;;7.18;3.20;;;;;;;;;;5015532;28;20030;-75
2022/11/24 02:27:21;;;;;;;8.35;3.85;;;;;;;;;;5014136;28;20504;-77
2022/11/24 02:29:50;;;;;;;11.02;3.65;;;;;;;;;;5010746;28;20049;-76
2022/11/24 02:32:18;;;;;;;13.25;3.85;;;;;;;;;;5010503;28;20508;-76
2022/11/24 02:34:44;;;;;;;13.35;3.10;;;;;;;;;;5007576;28;20036;-76
2022/11/24 02:37:12;;;;;;;7.43;2.85;;;;;;;;;;5005178;28;20034;-76
2022/11/24 02:39:37;;;;;;;8.57;3.53;;;;;;;;;;4994272;28;20030;-77
2022/11/24 02:42:06;;;;;;;8.55;4.03;;;;;;;;;;5010265;28;20034;-76
2022/11/24 02:44:36;;;;;;;6.43;3.42;;;;;;;;;;4994814;28;20507;-76
2022/11/24 02:47:04;;;;;;;6.65;3.80;;;;;;;;;;4987316;28;20033;-76
2022/11/24 02:49:32;;;;;;;11.70;3.53;;;;;;;;;;5001706;28;20045;-76
2022/11/24 02:51:58;;;;;;;4.60;3.17;;;;;;;;;;5008597;28;20029;-76
2022/11/24 02:54:24;;;;;;;8.20;3.92;;;;;;;;;;5015024;28;20029;-76
2022/11/24 02:56:50;;;;;;;7.78;3.20;;;;;;;;;;5008971;28;20056;-76
2022/11/24 02:59:16;;;;;;;10.95;4.10;;;;;;;;;;5014130;28;20029;-76
2022/11/24 03:01:42;;;;;;;7.28;3.40;;;;;;;;;;5008204;28;20365;-76
2022/11/24 03:04:08;;;;;;;8.77;2.75;;;;;;;;;;5009116;28;20148;-76
2022/11/24 03:06:36;;;;;;;7.60;4.75;;;;;;;;;;5000216;28;20030;-76
2022/11/24 03:09:05;;;;;;;10.55;3.92;;;;;;;;;;4991707;28;20484;-76
2022/11/24 03:11:31;;;;;;;9.88;3.47;;;;;;;;;;5009121;28;20030;-76
2022/11/24 03:13:57;;;;;;;9.13;3.58;;;;;;;;;;4997395;28;20033;-76
2022/11/24 03:16:23;;;;;;;8.02;3.65;;;;;;;;;;5014068;28;20464;-76
2022/11/24 03:18:52;;;;;;;8.43;3.15;;;;;;;;;;5006047;28;20068;-76
2022/11/24 03:21:18;;;;;;;4.25;2.45;;;;;;;;;;5004006;28;20400;-76
2022/11/24 03:23:44;;;;;;;13.68;4.00;;;;;;;;;;5009584;28;20052;-76
2022/11/24 03:26:11;;;;;;;11.98;3.15;;;;;;;;;;5013695;28;20041;-76
2022/11/24 03:28:37;;;;;;;6.75;3.22;;;;;;;;;;5008893;28;20036;-76
2022/11/24 03:31:10;;;;;;;8.23;3.70;;;;;;;;;;5008163;28;20041;-76
2022/11/24 03:33:35;;;;;;;7.38;3.35;;;;;;;;;;5009205;28;20038;-76
2022/11/24 03:36:02;;;;;;;9.10;4.40;;;;;;;;;;4983968;28;20065;-76
2022/11/24 03:38:27;;;;;;;4.72;2.53;;;;;;;;;;5007585;28;20034;-76
2022/11/24 03:40:53;;;;;;;5.90;3.38;;;;;;;;;;4990437;28;20367;-76
2022/11/24 03:43:19;;;;;;;7.53;2.33;;;;;;;;;;4994027;28;20044;-76
2022/11/24 03:45:48;;;;;;;7.78;2.20;;;;;;;;;;5002673;28;20384;-76
2022/11/24 03:48:15;;;;;;;8.02;2.80;;;;;;;;;;5008011;28;20049;-76
2022/11/24 03:50:40;;;;;;;12.60;3.75;;;;;;;;;;5009988;28;20033;-76
2022/11/24 03:53:09;;;;;;;10.65;3.10;;;;;;;;;;5001569;28;20056;-76
2022/11/24 03:55:34;;;;;;;7.80;3.10;;;;;;;;;;5000097;28;21261;-76
2022/11/24 03:58:03;;;;;;;10.98;4.13;;;;;;;;;;5004066;28;20037;-76
2022/11/24 04:00:29;;;;;;;18.42;4.70;;;;;;;;;;4974103;28;20269;-76
2022/11/24 04:02:57;;;;;;;12.63;4.43;;;;;;;;;;5002771;28;20026;-76
2022/11/24 04:05:25;;;;;;;6.65;3.58;;;;;;;;;;4979945;28;20038;-76
2022/11/24 04:07:55;;;;;;;6.85;3.33;;;;;;;;;;4983126;28;20037;-76
2022/11/24 04:10:23;;;;;;;7.35;3.97;;;;;;;;;;4986012;28;20030;-76
2022/11/24 04:12:54;;;;;;;9.93;3.75;;;;;;;;;;5006376;28;20026;-76
2022/11/24 04:15:22;;;;;;;11.85;4.43;;;;;;;;;;4999405;28;20033;-76
2022/11/24 04:17:48;;;;;;;4.90;3.22;;;;;;;;;;4989515;28;20561;-76
2022/11/24 04:20:15;;;;;;;8.13;3.85;;;;;;;;;;5005081;28;20034;-76
2022/11/24 04:22:40;;;;;;;9.20;3.08;;;;;;;;;;4983382;28;20896;-76
2022/11/24 04:25:11;;;;;;;17.15;4.88;;;;;;;;;;5002009;28;20586;-76
2022/11/24 04:27:37;;;;;;;6.78;4.05;;;;;;;;;;4981163;28;20052;-76
2022/11/24 04:30:05;;;;;;;5.38;2.88;;;;;;;;;;4983032;28;20362;-76
2022/11/24 04:32:31;;;;;;;10.82;3.75;;;;;;;;;;4983589;28;20038;-76
2022/11/24 04:34:59;;;;;;;6.65;3.45;;;;;;;;;;5005199;28;20038;-76
2022/11/24 04:37:25;;;;;;;7.15;3.35;;;;;;;;;;4996785;28;20424;-76
2022/11/24 04:39:51;;;;;;;5.15;3.20;;;;;;;;;;5002380;28;21276;-76
2022/11/24 04:42:17;;;;;;;10.35;3.60;;;;;;;;;;4987760;28;20038;-76
2022/11/24 04:44:42;;;;;;;5.65;3.22;;;;;;;;;;5002179;28;20026;-76
2022/11/24 04:47:14;;;;;;;6.78;3.03;;;;;;;;;;5004592;28;20045;-77
2022/11/24 04:49:42;;;;;;;5.60;2.55;;;;;;;;;;4982788;28;20030;-77
2022/11/24 04:52:08;;;;;;;16.67;4.22;;;;;;;;;;4982499;28;20399;-76
2022/11/24 04:54:36;;;;;;;9.80;2.67;;;;;;;;;;5003694;28;20044;-76
2022/11/24 04:57:07;;;;;;;6.15;3.28;;;;;;;;;;5004946;28;20528;-76
2022/11/24 04:59:33;;;;;;;11.02;3.60;;;;;;;;;;5002393;28;20037;-76
2022/11/24 05:02:01;;;;;;;4.20;2.67;;;;;;;;;;4994247;28;20033;-76
2022/11/24 05:04:29;;;;;;;12.45;4.65;;;;;;;;;;5007893;28;20034;-76
2022/11/24 05:06:55;;;;;;;7.32;3.25;;;;;;;;;;5001385;28;20406;-76
2022/11/24 05:09:21;;;;;;;5.60;2.17;;;;;;;;;;4999409;28;20061;-76
2022/11/24 05:11:47;;;;;;;9.15;3.88;;;;;;;;;;5001633;28;20456;-76
2022/11/24 05:14:15;;;;;;;10.05;3.05;;;;;;;;;;5000520;28;20065;-76
2022/11/24 05:16:41;;;;;;;9.07;3.70;;;;;;;;;;4969074;28;20045;-76
2022/11/24 05:19:10;;;;;;;11.70;2.60;;;;;;;;;;5005782;28;20105;-76
2022/11/24 05:21:38;;;;;;;5.70;2.63;;;;;;;;;;4980601;28;20033;-76
2022/11/24 05:24:06;;;;;;;9.45;3.30;;;;;;;;;;5003007;28;20038;-76
2022/11/24 05:26:34;;;;;;;5.72;2.92;;;;;;;;;;5001174;28;20041;-77
2022/11/24 05:29:00;;;;;;;7.80;3.30;;;;;;;;;;5000763;28;20037;-77
2022/11/24 05:31:26;;;;;;;4.20;3.38;;;;;;;;;;5002491;28;20038;-77
2022/11/24 05:33:51;;;;;;;7.40;2.67;;;;;;;;;;4990061;28;20174;-77
2022/11/24 05:39:04;;;;;;;6.47;2.88;;;;;;;;;;4993054;28;20026;-77
2022/11/24 05:41:30;;;;;;;9.10;4.70;;;;;;;;;;4995475;28;20033;-77
2022/11/24 05:43:56;;;;;;;7.10;3.55;;;;;;;;;;4986573;28;20026;-77
2022/11/24 05:46:22;;;;;;;5.43;3.05;;;;;;;;;;4982042;28;20029;-77
2022/11/24 05:48:48;;;;;;;4.97;3.08;;;;;;;;;;4981446;28;20042;-77
2022/11/24 05:51:13;;;;;;;9.32;3.45;;;;;;;;;;5000677;28;20119;-76
2022/11/24 05:53:42;;;;;;;7.30;3.40;;;;;;;;;;4997070;28;20037;-77
2022/11/24 05:56:08;;;;;;;9.02;4.10;;;;;;;;;;5000067;28;20038;-77
2022/11/24 05:58:34;;;;;;;11.75;3.95;;;;;;;;;;4984016;28;20048;-77
2022/11/24 06:00:59;;;;;;;13.02;4.63;;;;;;;;;;4997937;28;20642;-77
2022/11/24 06:03:25;;;;;;;6.28;2.75;;;;;;;;;;4995109;28;20041;-77
2022/11/24 06:05:51;;;;;;;10.13;3.83;;;;;;;;;;4972775;28;20153;-76
2022/11/24 06:08:17;;;;;;;7.20;4.00;;;;;;;;;;4974030;28;20049;-77
2022/11/24 06:10:43;;;;;;;8.27;3.83;;;;;;;;;;4994773;28;20492;-77
2022/11/24 06:13:11;;;;;;;16.90;4.10;;;;;;;;;;4977533;28;20133;-77
2022/11/24 06:15:39;;;;;;;12.07;4.50;;;;;;;;;;4976681;28;20388;-77
2022/11/24 06:18:05;;;;;;;9.05;3.83;;;;;;;;;;4968387;28;20037;-77
2022/11/24 06:20:33;;;;;;;8.32;3.85;;;;;;;;;;5003249;28;20048;-77
2022/11/24 06:22:59;;;;;;;10.25;3.88;;;;;;;;;;5002839;28;20030;-77
2022/11/24 06:25:25;;;;;;;10.45;6.15;;;;;;;;;;5005621;28;20046;-77
2022/11/24 06:27:51;;;;;;;11.98;4.60;;;;;;;;;;5005446;28;20116;-77
2022/11/24 06:30:16;;;;;;;12.10;4.53;;;;;;;;;;5014469;28;20116;-77
2022/11/24 06:32:44;;;;;;;5.78;3.00;;;;;;;;;;5007118;28;20407;-77
2022/11/24 06:35:14;;;;;;;8.13;3.92;;;;;;;;;;4987699;28;20441;-77
2022/11/24 06:37:42;;;;;;;12.00;4.28;;;;;;;;;;5005961;28;20026;-77
2022/11/24 06:40:11;;;;;;;9.60;4.35;;;;;;;;;;5009148;28;20045;-77
2022/11/24 06:42:39;;;;;;;8.95;3.65;;;;;;;;;;5008657;28;20037;-77
2022/11/24 06:45:05;;;;;;;7.53;3.28;;;;;;;;;;5006961;28;20036;-77
2022/11/24 06:47:34;;;;;;;11.57;5.18;;;;;;;;;;4996060;28;20399;-76
2022/11/24 06:50:00;;;;;;;15.23;6.65;;;;;;;;;;4975237;28;20534;-76
2022/11/24 06:52:28;;;;;;;12.70;4.20;;;;;;;;;;5010987;28;20045;-77
2022/11/24 06:54:54;;;;;;;11.85;3.70;;;;;;;;;;4994066;28;20041;-78
2022/11/24 06:57:20;;;;;;;14.93;5.68;;;;;;;;;;4973513;28;20037;-77
2022/11/24 06:59:45;;;;;;;15.35;3.50;;;;;;;;;;5009897;28;20037;-77
2022/11/24 07:02:14;;;;;;;10.73;3.65;;;;;;;;;;5007461;28;20026;-77
2022/11/24 07:04:42;;;;;;;7.57;4.13;;;;;;;;;;5011747;28;20034;-77
2022/11/24 07:07:08;;;;;;;4.80;2.78;;;;;;;;;;5004527;28;20397;-77
2022/11/24 07:09:36;;;;;;;4.95;2.67;;;;;;;;;;5010723;28;20030;-77
2022/11/24 07:12:03;;;;;;;9.38;4.90;;;;;;;;;;4997596;28;20041;-77
2022/11/24 07:14:29;;;;;;;11.23;3.92;;;;;;;;;;4977699;28;20034;-77
2022/11/24 07:16:55;;;;;;;7.65;3.03;;;;;;;;;;4993519;28;20403;-77
2022/11/24 07:19:23;;;;;;;11.65;3.67;;;;;;;;;;5016934;22;20593;-84
2022/11/24 07:21:49;;;;;;;15.23;4.28;;;;;;;;;;4999374;28;20104;-84
2022/11/24 07:24:15;;;;;;;15.07;5.25;;;;;;;;;;4972438;28;20069;-84
2022/11/24 07:26:41;;;;;;;7.72;3.20;;;;;;;;;;4992485;28;20030;-85
2022/11/24 07:29:07;;;;;;;9.93;4.60;;;;;;;;;;4995999;28;20120;-85
2022/11/24 07:31:33;;;;;;;11.60;3.80;;;;;;;;;;4974742;28;20496;-85
2022/11/24 07:33:58;;;;;;;5.85;4.75;;;;;;;;;;4971819;28;20036;-85
2022/11/24 07:36:29;;;;;;;9.88;4.15;;;;;;;;;;4982171;28;20025;-85
2022/11/24 07:38:58;;;;;;;10.20;3.72;;;;;;;;;;4970234;28;20034;-85
2022/11/24 07:41:26;;;;;;;16.48;5.63;;;;;;;;;;4971834;28;20038;-85
2022/11/24 07:43:52;;;;;;;14.13;3.47;;;;;;;;;;4971039;28;20101;-85
2022/11/24 07:46:18;;;;;;;13.15;4.30;;;;;;;;;;4979261;28;20508;-85
2022/11/24 07:48:44;;;;;;;17.02;4.18;;;;;;;;;;4991026;28;20022;-85
2022/11/24 07:51:10;;;;;;;5.93;2.90;;;;;;;;;;4982201;28;20046;-84
2022/11/24 07:53:37;;;;;;;15.50;5.05;;;;;;;;;;4971844;28;20144;-84
2022/11/24 07:56:04;;;;;;;15.10;5.13;;;;;;;;;;4991348;28;20037;-85
2022/11/24 07:58:31;;;;;;;15.82;5.47;;;;;;;;;;4973175;28;20029;-85
2022/11/24 08:00:58;;;;;;;9.32;4.78;;;;;;;;;;4977221;28;20523;-85
2022/11/24 08:03:24;;;;;;;6.85;3.30;;;;;;;;;;4991632;28;20037;-85
2022/11/24 08:05:54;;;;;;;10.48;6.00;;;;;;;;;;4982113;28;20035;-84
2022/11/24 08:08:20;;;;;;;8.63;4.47;;;;;;;;;;4993995;28;20036;-85
2022/11/24 08:10:46;;;;;;;12.15;4.45;;;;;;;;;;4973310;28;20058;-84
2022/11/24 08:13:12;;;;;;;9.20;3.08;;;;;;;;;;4968665;28;20030;-84
2022/11/24 08:15:38;;;;;;;14.90;3.67;;;;;;;;;;4976482;28;20030;-85
2022/11/24 08:18:04;;;;;;;8.65;2.60;;;;;;;;;;4956252;28;20041;-85
2022/11/24 08:20:32;;;;;;;12.27;3.95;;;;;;;;;;4972868;28;20038;-85
2022/11/24 08:23:01;;;;;;;7.78;3.85;;;;;;;;;;4986538;28;20488;-85
2022/11/24 08:25:32;;;;;;;5.90;2.78;;;;;;;;;;4990789;28;20034;-86
2022/11/24 08:28:01;;;;;;;10.52;2.78;;;;;;;;;;4954196;28;20038;-86
2022/11/24 08:30:30;;;;;;;5.47;2.90;;;;;;;;;;4954065;28;20033;-86
2022/11/24 08:32:59;;;;;;;9.05;3.78;;;;;;;;;;4969745;28;20030;-86
2022/11/24 08:35:26;;;;;;;4.47;2.60;;;;;;;;;;4988613;28;20026;-85
2022/11/24 08:37:51;;;;;;;6.70;2.15;;;;;;;;;;4960096;28;20037;-84
2022/11/24 08:40:17;;;;;;;4.43;1.85;;;;;;;;;;4989195;28;20026;-84
2022/11/24 08:42:46;;;;;;;8.60;3.70;;;;;;;;;;4989669;28;20388;-84
2022/11/24 08:45:11;;;;;;;12.77;2.70;;;;;;;;;;4972015;28;20037;-84
2022/11/24 08:47:37;;;;;;;5.70;2.53;;;;;;;;;;4977000;28;20402;-84
2022/11/24 08:50:04;;;;;;;4.70;1.98;;;;;;;;;;4989719;28;20041;-86
2022/11/24 08:52:30;;;;;;;5.35;3.08;;;;;;;;;;4971586;28;20472;-84
2022/11/24 08:54:56;;;;;;;6.80;3.00;;;;;;;;;;4957006;28;20080;-85
2022/11/24 08:57:23;;;;;;;9.10;3.53;;;;;;;;;;4992491;28;20049;-85
2022/11/24 08:59:49;;;;;;;4.28;2.45;;;;;;;;;;4955841;28;20035;-85
2022/11/24 09:02:15;;;;;;;5.13;3.45;;;;;;;;;;4963240;28;20078;-85
2022/11/24 09:04:42;;;;;;;14.00;2.78;;;;;;;;;;4973128;28;20036;-84
2022/11/24 09:07:08;;;;;;;4.82;2.53;;;;;;;;;;4972108;28;20046;-86
2022/11/24 09:09:34;;;;;;;3.40;1.30;;;;;;;;;;4944126;28;20040;-86
2022/11/24 09:12:00;;;;;;;4.80;1.92;;;;;;;;;;4983404;28;20041;-86
2022/11/24 09:14:25;;;;;;;5.30;1.95;;;;;;;;;;4984103;28;20543;-85
2022/11/24 09:16:51;;;;;;;11.88;2.60;;;;;;;;;;4988679;28;20026;-85
2022/11/24 09:19:17;;;;;;;3.60;1.52;;;;;;;;;;4999220;28;20026;-84
2022/11/24 09:21:43;;;;;;;4.45;1.83;;;;;;;;;;4989886;28;20038;-85
2022/11/24 09:24:09;;;;;;;2.60;1.20;;;;;;;;;;4975004;28;20404;-85
2022/11/24 09:26:36;;;;;;;3.95;1.60;;;;;;;;;;4986955;28;20085;-85
2022/11/24 09:29:03;;;;;;;3.60;1.38;;;;;;;;;;4994427;28;20036;-85
2022/11/24 09:31:33;;;;;;;4.97;1.00;;;;;;;;;;4980780;28;20034;-85
2022/11/24 09:33:59;;;;;;;8.52;2.80;;;;;;;;;;4974408;28;20041;-85
2022/11/24 09:36:25;;;;;;;6.88;4.45;;;;;;;;;;4990630;28;20026;-84
2022/11/24 09:38:51;;;;;;;4.47;2.28;;;;;;;;;;4971817;28;20436;-85
2022/11/24 09:41:17;;;;;;;5.03;1.83;;;;;;;;;;4992768;28;20041;-84
2022/11/24 09:43:58;;;;;;;4.53;2.05;;;;;;;;;;4976420;28;20085;-85
2022/11/24 09:46:31;;;;;;;7.05;1.95;;;;;;;;;;4982366;28;20042;-85
2022/11/24 09:48:59;;;;;;;5.38;2.00;;;;;;;;;;4990455;28;20254;-84
2022/11/24 09:51:28;;;;;;;4.55;2.25;;;;;;;;;;4980632;28;20037;-85
2022/11/24 09:53:56;;;;;;;2.88;1.10;;;;;;;;;;4999218;28;20038;-84
2022/11/24 09:56:27;;;;;;;7.32;2.47;;;;;;;;;;4993156;28;20385;-85
2022/11/24 09:58:58;;;;;;;7.40;2.17;;;;;;;;;;4963211;28;20037;-85
2022/11/24 10:01:30;;;;;;;4.50;1.42;;;;;;;;;;4974232;28;20029;-84
2022/11/24 10:03:56;;;;;;;2.28;1.83;;;;;;;;;;4957809;28;20036;-84
2022/11/24 10:06:26;;;;;;;9.38;2.75;;;;;;;;;;4989261;28;20038;-85
2022/11/24 10:08:52;;;;;;;6.90;1.70;;;;;;;;;;4975352;28;20038;-86
2022/11/24 10:11:27;;;;;;;4.05;1.95;;;;;;;;;;4980241;28;20049;-85
2022/11/24 10:13:53;;;;;;;3.83;1.70;;;;;;;;;;4988033;28;20038;-86
2022/11/24 10:16:37;;;;;;;2.35;1.30;;;;;;;;;;4992210;28;20037;-86
2022/11/24 10:19:06;;;;;;;5.28;3.10;;;;;;;;;;4984754;28;20030;-84
2022/11/24 10:21:34;;;;;;;5.18;1.98;;;;;;;;;;4992347;28;20490;-86
2022/11/24 10:24:11;;;;;;;2.15;1.33;;;;;;;;;;4972345;28;20384;-85
2022/11/24 10:26:38;;;;;;;3.22;1.60;;;;;;;;;;4980594;28;20035;-85
2022/11/24 10:29:13;;;;;;;4.28;1.45;;;;;;;;;;4991781;28;20464;-86
2022/11/24 10:31:43;;;;;;;2.10;1.00;;;;;;;;;;4979274;28;20042;-85
2022/11/24 10:34:12;;;;;;;4.57;1.80;;;;;;;;;;4955470;28;20404;-85
2022/11/24 10:36:44;;;;;;;3.83;1.60;;;;;;;;;;4993617;28;20053;-85
2022/11/24 10:39:18;;;;;;;5.90;2.00;;;;;;;;;;4974275;28;20042;-85
2022/11/24 10:42:06;;;;;;;8.50;1.67;;;;;;;;;;4994882;28;20026;-84
2022/11/24 10:44:32;;;;;;;4.55;2.08;;;;;;;;;;4994359;28;20508;-86
2022/11/24 10:47:01;;;;;;;2.78;1.70;;;;;;;;;;4980430;28;21048;-85
2022/11/24 10:49:30;;;;;;;4.22;1.30;;;;;;;;;;4986041;28;20037;-85
2022/11/24 10:52:06;;;;;;;3.10;0.90;;;;;;;;;;4995118;28;20033;-85
2022/11/24 10:54:34;;;;;;;3.50;1.30;;;;;;;;;;4976693;28;20392;-85
2022/11/24 10:57:05;;;;;;;5.65;2.25;;;;;;;;;;4954112;28;20038;-86
2022/11/24 10:59:39;;;;;;;2.75;1.42;;;;;;;;;;4994734;28;20499;-85
2022/11/24 11:02:25;;;;;;;8.63;2.05;;;;;;;;;;4974203;28;20037;-85
2022/11/24 11:04:51;;;;;;;4.28;1.80;;;;;;;;;;4974592;28;20034;-86
2022/11/24 11:07:20;;;;;;;5.75;2.22;;;;;;;;;;4964737;28;20037;-85
2022/11/24 11:09:48;;;;;;;3.15;2.17;;;;;;;;;;4994036;28;20477;-84
2022/11/24 11:12:34;;;;;;;4.03;2.30;;;;;;;;;;4989754;28;20033;-85
2022/11/24 11:15:19;;;;;;;2.22;1.20;;;;;;;;;;4969242;28;20389;-87
2022/11/24 11:17:45;;;;;;;2.78;1.73;;;;;;;;;;4986778;28;20030;-87
2022/11/24 11:20:18;;;;;;;2.17;1.45;;;;;;;;;;4981485;28;20039;-86
2022/11/24 11:22:47;;;;;;;8.23;2.30;;;;;;;;;;4969800;28;20031;-86
2022/11/24 11:25:23;;;;;;;3.38;1.33;;;;;;;;;;4992061;28;20553;-88
2022/11/24 11:28:11;;;;;;;4.40;2.03;;;;;;;;;;4990414;28;20030;-87
2022/11/24 11:30:37;;;;;;;4.40;2.40;;;;;;;;;;4996732;28;20026;-86
2022/11/24 11:33:03;;;;;;;3.40;1.58;;;;;;;;;;4975966;28;20107;-86
2022/11/24 11:35:32;;;;;;;4.55;1.38;;;;;;;;;;4992793;28;20092;-85
2022/11/24 11:38:02;;;;;;;2.42;1.40;;;;;;;;;;4985329;28;20042;-86
2022/11/24 11:40:28;;;;;;;4.28;2.17;;;;;;;;;;4977547;28;20393;-88
2022/11/24 11:42:54;;;;;;;4.90;2.25;;;;;;;;;;4955475;28;20030;-88
2022/11/24 11:45:22;;;;;;;8.73;2.35;;;;;;;;;;4978095;28;20038;-88
2022/11/24 11:47:51;;;;;;;4.18;1.95;;;;;;;;;;4974074;28;20038;-87
2022/11/24 11:50:27;;;;;;;4.65;1.80;;;;;;;;;;5664319;22;20004;-87
2022/11/24 11:52:59;;;;;;;5.15;2.65;;;;;;;;;;4994240;28;20064;-88
2022/11/24 11:55:32;;;;;;;6.53;2.50;;;;;;;;;;5008834;28;20033;-88
2022/11/24 11:58:24;;;;;;;6.07;2.20;;;;;;;;;;5009328;28;20060;-88
2022/11/24 12:12:26;;;;;;;3.70;1.92;;;;;;;;;;5212455;23;20053;-96
2022/11/24 12:15:11;;;;;;;5.65;1.80;;;;;;;;;;4997638;28;20061;-96
2022/11/24 12:17:57;;;;;;;6.25;2.15;;;;;;;;;;4975765;28;20067;-96
2022/11/24 12:20:39;;;;;;;3.75;2.00;;;;;;;;;;4966160;28;20045;-96
2022/11/24 12:23:14;;;;;;;13.38;3.35;;;;;;;;;;4971004;28;20041;-96
2022/11/24 12:26:09;;;;;;;14.57;2.78;;;;;;;;;;4995283;28;20052;-96
2022/11/24 12:28:43;;;;;;;9.07;3.50;;;;;;;;;;4980960;28;20042;-96
2022/11/24 12:31:15;;;;;;;5.72;2.80;;;;;;;;;;5017532;28;20041;-96
2022/11/24 12:33:48;;;;;;;3.60;1.60;;;;;;;;;;4974805;28;20042;-96
2022/11/24 12:36:26;;;;;;;7.70;1.83;;;;;;;;;;5000543;28;20281;-94
2022/11/24 12:39:15;;;;;;;9.05;2.70;;;;;;;;;;4977791;28;20043;-94
2022/11/24 12:41:41;;;;;;;5.25;2.53;;;;;;;;;;4964110;28;20046;-96
2022/11/24 12:44:26;;;;;;;4.07;2.22;;;;;;;;;;4982950;28;20409;-96
2022/11/24 12:46:55;;;;;;;6.47;2.13;;;;;;;;;;4995281;28;20419;-94
2022/11/24 12:49:40;;;;;;;5.80;2.35;;;;;;;;;;5005585;28;20029;-95
2022/11/24 12:52:14;;;;;;;5.07;3.42;;;;;;;;;;5001975;28;20040;-94
2022/11/24 12:54:40;;;;;;;10.20;2.58;;;;;;;;;;4978736;28;20042;-96
2022/11/24 12:57:20;;;;;;;8.80;3.50;;;;;;;;;;4994875;28;20038;-95
2022/11/24 12:59:55;;;;;;;7.35;3.38;;;;;;;;;;4985891;28;20041;-95
2022/11/24 13:02:27;;;;;;;6.68;3.78;;;;;;;;;;4981180;28;20046;-96
2022/11/24 13:05:12;;;;;;;6.15;2.50;;;;;;;;;;4973139;28;20101;-96
2022/11/24 13:07:43;;;;;;;4.00;2.03;;;;;;;;;;4969544;28;20562;-96
2022/11/24 13:10:22;;;;;;;7.68;3.38;;;;;;;;;;4986269;28;20041;-96
2022/11/24 13:13:05;;;;;;;7.68;3.17;;;;;;;;;;4969077;28;20038;-96
2022/11/24 13:15:32;;;;;;;10.30;3.22;;;;;;;;;;4982286;28;20034;-96
2022/11/24 13:18:00;;;;;;;3.50;1.80;;;;;;;;;;4973922;28;20033;-95
2022/11/24 13:20:32;;;;;;;5.95;3.10;;;;;;;;;;5002683;23;20488;-77
2022/11/24 13:23:01;;;;;;;5.10;2.88;;;;;;;;;;4969906;28;20030;-76
2022/11/24 13:25:28;;;;;;;4.95;2.20;;;;;;;;;;5006634;28;20030;-77
2022/11/24 13:27:58;;;;;;;17.55;2.97;;;;;;;;;;4991779;28;20038;-77
2022/11/24 13:30:33;;;;;;;5.32;2.65;;;;;;;;;;4998629;28;20037;-77
2022/11/24 13:33:00;;;;;;;12.15;3.40;;;;;;;;;;5012658;28;20510;-77
2022/11/24 13:35:26;;;;;;;9.43;3.75;;;;;;;;;;4993262;28;20043;-77
2022/11/24 13:37:52;;;;;;;6.88;3.10;;;;;;;;;;4991967;28;20034;-76
2022/11/24 13:40:21;;;;;;;3.83;1.77;;;;;;;;;;5018456;28;20030;-76
2022/11/24 13:42:53;;;;;;;5.00;1.90;;;;;;;;;;4991732;28;20030;-76
2022/11/24 13:45:39;;;;;;;5.07;1.92;;;;;;;;;;5008604;28;20041;-76
2022/11/24 13:48:20;;;;;;;7.68;4.15;;;;;;;;;;4989045;28;20026;-76
2022/11/24 13:50:48;;;;;;;4.25;2.15;;;;;;;;;;5025584;28;20033;-76
2022/11/24 13:53:14;;;;;;;8.55;3.10;;;;;;;;;;5008607;28;20045;-76
2022/11/24 13:55:54;;;;;;;6.85;2.45;;;;;;;;;;5010132;28;20036;-76
2022/11/24 13:58:25;;;;;;;6.60;2.75;;;;;;;;;;4990086;28;20045;-76
2022/11/24 14:01:22;;;;;;;10.07;4.20;;;;;;;;;;5011774;28;20026;-76
2022/11/24 14:04:02;;;;;;;4.97;2.58;;;;;;;;;;4994957;28;20049;-76
2022/11/24 14:06:33;;;;;;;5.22;3.35;;;;;;;;;;4991916;28;20479;-76
2022/11/24 14:09:06;;;;;;;13.25;4.18;;;;;;;;;;5011592;28;20029;-76
2022/11/24 14:11:32;;;;;;;5.82;3.08;;;;;;;;;;5024682;28;20037;-77
2022/11/24 14:14:10;;;;;;;6.93;3.78;;;;;;;;;;5008930;28;20030;-76
2022/11/24 14:16:39;;;;;;;9.60;3.78;;;;;;;;;;4993439;28;20034;-77
2022/11/24 14:19:08;;;;;;;19.27;4.43;;;;;;;;;;5013357;28;20384;-76
2022/11/24 14:21:40;;;;;;;6.80;2.78;;;;;;;;;;5018873;28;20029;-76
2022/11/24 14:24:08;;;;;;;8.75;3.55;;;;;;;;;;5012997;28;20034;-77
2022/11/24 14:26:36;;;;;;;20.83;3.10;;;;;;;;;;5012170;28;20034;-77
2022/11/24 14:29:22;;;;;;;6.07;2.95;;;;;;;;;;5010756;28;20045;-76
2022/11/24 14:31:52;;;;;;;6.47;3.50;;;;;;;;;;5003244;28;20050;-77
2022/11/24 14:34:22;;;;;;;4.95;2.63;;;;;;;;;;4982008;28;20480;-76
2022/11/24 14:36:48;;;;;;;10.70;2.70;;;;;;;;;;4995288;28;20029;-76
2022/11/24 14:39:17;;;;;;;6.60;3.25;;;;;;;;;;5011371;28;20033;-77
2022/11/24 14:42:10;;;;;;;16.48;3.33;;;;;;;;;;5009754;28;20479;-77
2022/11/24 14:44:41;;;;;;;8.63;3.33;;;;;;;;;;4991910;28;20056;-77
2022/11/24 14:47:15;;;;;;;12.50;5.05;;;;;;;;;;4986264;28;20038;-77
2022/11/24 14:49:41;;;;;;;8.43;3.75;;;;;;;;;;5008083;28;20055;-77
2022/11/24 14:52:11;;;;;;;13.77;4.90;;;;;;;;;;5021335;28;20570;-77
2022/11/24 14:54:45;;;;;;;11.57;3.15;;;;;;;;;;5014173;28;20057;-77
2022/11/24 14:57:24;;;;;;;5.90;2.92;;;;;;;;;;4997013;28;20038;-76
2022/11/24 15:00:28;;;;;;;14.18;4.10;;;;;;;;;;5010478;28;20037;-75
2022/11/24 15:03:02;;;;;;;7.85;3.97;;;;;;;;;;4898839;29;20040;-76
2022/11/24 15:05:47;;;;;;;6.63;3.28;;;;;;;;;;4969695;28;20042;-76